sensor_id;sensor_type;location;lat;lon;timestamp;temperature;humidity
60313;DHT22;46158;52.850;6.970;2022-07-18T00:01:54;19.20;75.70
60313;DHT22;46158;52.850;6.970;2022-07-18T00:04:19;19.20;75.70
60313;DHT22;46158;52.850;6.970;2022-07-18T00:06:45;19.20;75.70
60313;DHT22;46158;52.850;6.970;2022-07-18T00:09:10;19.20;75.70
60313;DHT22;46158;52.850;6.970;2022-07-18T00:11:36;19.10;75.60
60313;DHT22;46158;52.850;6.970;2022-07-18T00:14:02;19.10;75.70
60313;DHT22;46158;52.850;6.970;2022-07-18T00:16:28;19.10;75.60
60313;DHT22;46158;52.850;6.970;2022-07-18T00:18:54;19.10;75.60
60313;DHT22;46158;52.850;6.970;2022-07-18T00:21:20;19.10;75.60
60313;DHT22;46158;52.850;6.970;2022-07-18T00:23:46;19.10;75.60
60313;DHT22;46158;52.850;6.970;2022-07-18T00:26:11;19.10;75.60
60313;DHT22;46158;52.850;6.970;2022-07-18T00:28:37;19.10;75.60
60313;DHT22;46158;52.850;6.970;2022-07-18T00:31:02;19.10;75.60
60313;DHT22;46158;52.850;6.970;2022-07-18T00:33:28;19.10;75.70
60313;DHT22;46158;52.850;6.970;2022-07-18T00:35:53;19.10;75.60
60313;DHT22;46158;52.850;6.970;2022-07-18T00:38:19;19.10;75.60
60313;DHT22;46158;52.850;6.970;2022-07-18T00:40:45;19.10;75.70
60313;DHT22;46158;52.850;6.970;2022-07-18T00:43:13;19.10;75.60
60313;DHT22;46158;52.850;6.970;2022-07-18T00:45:39;19.10;75.60
60313;DHT22;46158;52.850;6.970;2022-07-18T00:48:08;19.10;75.60
60313;DHT22;46158;52.850;6.970;2022-07-18T00:50:34;19.10;75.70
60313;DHT22;46158;52.850;6.970;2022-07-18T00:52:59;19.10;75.60
60313;DHT22;46158;52.850;6.970;2022-07-18T00:55:25;19.00;75.60
60313;DHT22;46158;52.850;6.970;2022-07-18T00:57:51;19.00;75.60
60313;DHT22;46158;52.850;6.970;2022-07-18T01:00:16;19.00;75.70
60313;DHT22;46158;52.850;6.970;2022-07-18T01:03:01;19.00;75.60
60313;DHT22;46158;52.850;6.970;2022-07-18T01:05:26;19.10;75.70
60313;DHT22;46158;52.850;6.970;2022-07-18T01:07:52;19.10;75.70
60313;DHT22;46158;52.850;6.970;2022-07-18T01:10:18;19.10;75.70
60313;DHT22;46158;52.850;6.970;2022-07-18T01:12:44;19.00;75.60
60313;DHT22;46158;52.850;6.970;2022-07-18T01:15:10;19.00;75.60
60313;DHT22;46158;52.850;6.970;2022-07-18T01:17:35;19.00;75.60
60313;DHT22;46158;52.850;6.970;2022-07-18T01:20:02;19.00;75.60
60313;DHT22;46158;52.850;6.970;2022-07-18T01:22:28;19.00;75.60
60313;DHT22;46158;52.850;6.970;2022-07-18T01:24:53;19.00;75.60
60313;DHT22;46158;52.850;6.970;2022-07-18T01:27:20;19.00;75.60
60313;DHT22;46158;52.850;6.970;2022-07-18T01:29:47;19.00;75.60
60313;DHT22;46158;52.850;6.970;2022-07-18T01:32:12;19.00;75.60
60313;DHT22;46158;52.850;6.970;2022-07-18T01:34:38;19.00;75.70
60313;DHT22;46158;52.850;6.970;2022-07-18T01:37:05;19.00;75.70
60313;DHT22;46158;52.850;6.970;2022-07-18T01:39:31;19.00;75.70
60313;DHT22;46158;52.850;6.970;2022-07-18T01:41:57;19.00;75.70
60313;DHT22;46158;52.850;6.970;2022-07-18T01:44:23;19.00;75.70
60313;DHT22;46158;52.850;6.970;2022-07-18T01:46:49;19.00;75.60
60313;DHT22;46158;52.850;6.970;2022-07-18T01:49:15;18.90;75.60
60313;DHT22;46158;52.850;6.970;2022-07-18T01:51:44;19.00;75.60
60313;DHT22;46158;52.850;6.970;2022-07-18T01:54:09;18.90;75.60
60313;DHT22;46158;52.850;6.970;2022-07-18T01:56:35;19.00;75.60
60313;DHT22;46158;52.850;6.970;2022-07-18T01:59:01;18.90;75.50
60313;DHT22;46158;52.850;6.970;2022-07-18T02:01:26;18.90;75.50
60313;DHT22;46158;52.850;6.970;2022-07-18T02:03:52;18.90;75.60
60313;DHT22;46158;52.850;6.970;2022-07-18T02:06:18;18.90;75.50
60313;DHT22;46158;52.850;6.970;2022-07-18T02:08:43;18.90;76.20
60313;DHT22;46158;52.850;6.970;2022-07-18T02:11:09;18.90;75.50
60313;DHT22;46158;52.850;6.970;2022-07-18T02:13:34;18.90;75.50
60313;DHT22;46158;52.850;6.970;2022-07-18T02:16:00;18.90;75.50
60313;DHT22;46158;52.850;6.970;2022-07-18T02:18:26;18.90;75.50
60313;DHT22;46158;52.850;6.970;2022-07-18T02:20:52;18.90;75.40
60313;DHT22;46158;52.850;6.970;2022-07-18T02:23:17;18.90;75.40
60313;DHT22;46158;52.850;6.970;2022-07-18T02:25:43;18.90;75.40
60313;DHT22;46158;52.850;6.970;2022-07-18T02:28:08;18.90;75.40
60313;DHT22;46158;52.850;6.970;2022-07-18T02:30:34;18.90;75.40
60313;DHT22;46158;52.850;6.970;2022-07-18T02:32:59;18.90;75.40
60313;DHT22;46158;52.850;6.970;2022-07-18T02:35:25;18.90;75.40
60313;DHT22;46158;52.850;6.970;2022-07-18T02:37:50;18.90;75.40
60313;DHT22;46158;52.850;6.970;2022-07-18T02:40:16;18.90;75.40
60313;DHT22;46158;52.850;6.970;2022-07-18T02:42:41;18.80;75.30
60313;DHT22;46158;52.850;6.970;2022-07-18T02:45:07;18.90;75.40
60313;DHT22;46158;52.850;6.970;2022-07-18T02:47:33;18.90;75.30
60313;DHT22;46158;52.850;6.970;2022-07-18T02:49:58;18.80;75.30
60313;DHT22;46158;52.850;6.970;2022-07-18T02:52:24;18.80;75.30
60313;DHT22;46158;52.850;6.970;2022-07-18T02:54:50;18.80;75.20
60313;DHT22;46158;52.850;6.970;2022-07-18T02:57:15;18.80;75.20
60313;DHT22;46158;52.850;6.970;2022-07-18T02:59:41;18.80;75.20
60313;DHT22;46158;52.850;6.970;2022-07-18T03:02:06;18.80;75.30
60313;DHT22;46158;52.850;6.970;2022-07-18T03:04:32;18.80;75.20
60313;DHT22;46158;52.850;6.970;2022-07-18T03:06:58;18.80;75.20
60313;DHT22;46158;52.850;6.970;2022-07-18T03:09:23;18.80;75.90
60313;DHT22;46158;52.850;6.970;2022-07-18T03:11:53;18.80;75.20
60313;DHT22;46158;52.850;6.970;2022-07-18T03:14:18;18.80;75.20
60313;DHT22;46158;52.850;6.970;2022-07-18T03:16:44;18.80;75.20
60313;DHT22;46158;52.850;6.970;2022-07-18T03:19:09;18.80;75.20
60313;DHT22;46158;52.850;6.970;2022-07-18T03:21:35;18.80;75.20
60313;DHT22;46158;52.850;6.970;2022-07-18T03:24:01;18.70;75.10
60313;DHT22;46158;52.850;6.970;2022-07-18T03:26:26;18.80;75.20
60313;DHT22;46158;52.850;6.970;2022-07-18T03:28:52;18.70;75.10
60313;DHT22;46158;52.850;6.970;2022-07-18T03:31:17;18.80;75.10
60313;DHT22;46158;52.850;6.970;2022-07-18T03:33:43;18.80;75.10
60313;DHT22;46158;52.850;6.970;2022-07-18T03:36:08;18.70;75.10
60313;DHT22;46158;52.850;6.970;2022-07-18T03:38:34;18.70;75.10
60313;DHT22;46158;52.850;6.970;2022-07-18T03:41:01;18.70;75.10
60313;DHT22;46158;52.850;6.970;2022-07-18T03:43:27;18.70;75.00
60313;DHT22;46158;52.850;6.970;2022-07-18T03:45:53;18.70;75.70
60313;DHT22;46158;52.850;6.970;2022-07-18T03:48:18;18.70;75.10
60313;DHT22;46158;52.850;6.970;2022-07-18T03:50:44;18.70;75.10
60313;DHT22;46158;52.850;6.970;2022-07-18T03:53:10;18.70;75.10
60313;DHT22;46158;52.850;6.970;2022-07-18T03:55:35;18.70;75.10
60313;DHT22;46158;52.850;6.970;2022-07-18T03:58:01;18.70;75.10
60313;DHT22;46158;52.850;6.970;2022-07-18T04:00:26;18.70;75.10
60313;DHT22;46158;52.850;6.970;2022-07-18T04:02:52;18.70;75.10
60313;DHT22;46158;52.850;6.970;2022-07-18T04:05:17;18.60;75.00
60313;DHT22;46158;52.850;6.970;2022-07-18T04:07:43;18.60;75.00
60313;DHT22;46158;52.850;6.970;2022-07-18T04:10:09;18.60;75.00
60313;DHT22;46158;52.850;6.970;2022-07-18T04:12:43;18.60;75.00
60313;DHT22;46158;52.850;6.970;2022-07-18T04:15:09;18.60;75.00
60313;DHT22;46158;52.850;6.970;2022-07-18T04:17:35;18.60;75.00
60313;DHT22;46158;52.850;6.970;2022-07-18T04:20:00;18.60;75.00
60313;DHT22;46158;52.850;6.970;2022-07-18T04:22:26;18.60;75.00
60313;DHT22;46158;52.850;6.970;2022-07-18T04:24:51;18.60;75.70
60313;DHT22;46158;52.850;6.970;2022-07-18T04:27:17;18.60;75.00
60313;DHT22;46158;52.850;6.970;2022-07-18T04:29:42;18.60;75.00
60313;DHT22;46158;52.850;6.970;2022-07-18T04:32:08;18.60;75.00
60313;DHT22;46158;52.850;6.970;2022-07-18T04:34:33;18.60;75.00
60313;DHT22;46158;52.850;6.970;2022-07-18T04:36:59;18.60;75.00
60313;DHT22;46158;52.850;6.970;2022-07-18T04:39:25;18.60;75.00
60313;DHT22;46158;52.850;6.970;2022-07-18T04:41:50;18.50;75.00
60313;DHT22;46158;52.850;6.970;2022-07-18T04:44:16;18.60;75.20
60313;DHT22;46158;52.850;6.970;2022-07-18T04:46:41;18.60;75.20
60313;DHT22;46158;52.850;6.970;2022-07-18T04:49:06;18.60;75.20
60313;DHT22;46158;52.850;6.970;2022-07-18T04:51:32;18.50;75.10
60313;DHT22;46158;52.850;6.970;2022-07-18T04:53:58;18.50;75.00
60313;DHT22;46158;52.850;6.970;2022-07-18T04:56:23;18.50;74.90
60313;DHT22;46158;52.850;6.970;2022-07-18T04:58:49;18.50;74.90
60313;DHT22;46158;52.850;6.970;2022-07-18T05:01:14;18.50;75.00
60313;DHT22;46158;52.850;6.970;2022-07-18T05:03:40;18.50;75.10
60313;DHT22;46158;52.850;6.970;2022-07-18T05:06:06;18.50;75.20
60313;DHT22;46158;52.850;6.970;2022-07-18T05:08:31;18.50;75.20
60313;DHT22;46158;52.850;6.970;2022-07-18T05:10:58;18.50;75.30
60313;DHT22;46158;52.850;6.970;2022-07-18T05:13:23;18.50;75.30
60313;DHT22;46158;52.850;6.970;2022-07-18T05:15:49;18.50;75.30
60313;DHT22;46158;52.850;6.970;2022-07-18T05:18:14;18.50;75.30
60313;DHT22;46158;52.850;6.970;2022-07-18T05:20:41;18.50;75.30
60313;DHT22;46158;52.850;6.970;2022-07-18T05:23:06;18.50;75.60
60313;DHT22;46158;52.850;6.970;2022-07-18T05:25:32;18.50;75.70
60313;DHT22;46158;52.850;6.970;2022-07-18T05:27:58;18.50;75.70
60313;DHT22;46158;52.850;6.970;2022-07-18T05:30:23;18.50;75.60
60313;DHT22;46158;52.850;6.970;2022-07-18T05:32:50;18.50;75.60
60313;DHT22;46158;52.850;6.970;2022-07-18T05:35:17;18.50;75.60
60313;DHT22;46158;52.850;6.970;2022-07-18T05:37:43;18.50;75.60
60313;DHT22;46158;52.850;6.970;2022-07-18T05:40:09;18.50;75.60
60313;DHT22;46158;52.850;6.970;2022-07-18T05:42:35;18.50;75.50
60313;DHT22;46158;52.850;6.970;2022-07-18T05:45:01;18.50;75.40
60313;DHT22;46158;52.850;6.970;2022-07-18T05:47:27;18.50;75.40
60313;DHT22;46158;52.850;6.970;2022-07-18T05:49:52;18.50;75.30
60313;DHT22;46158;52.850;6.970;2022-07-18T05:52:18;18.50;75.40
60313;DHT22;46158;52.850;6.970;2022-07-18T05:54:43;18.50;75.40
60313;DHT22;46158;52.850;6.970;2022-07-18T05:57:09;18.50;75.40
60313;DHT22;46158;52.850;6.970;2022-07-18T05:59:34;18.50;75.50
60313;DHT22;46158;52.850;6.970;2022-07-18T06:02:00;18.50;75.60
60313;DHT22;46158;52.850;6.970;2022-07-18T06:04:26;18.50;75.60
60313;DHT22;46158;52.850;6.970;2022-07-18T06:06:51;18.50;75.70
60313;DHT22;46158;52.850;6.970;2022-07-18T06:09:17;18.40;75.70
60313;DHT22;46158;52.850;6.970;2022-07-18T06:11:43;18.50;75.80
60313;DHT22;46158;52.850;6.970;2022-07-18T06:14:08;18.40;75.70
60313;DHT22;46158;52.850;6.970;2022-07-18T06:16:34;18.50;75.90
60313;DHT22;46158;52.850;6.970;2022-07-18T06:18:59;18.40;75.90
60313;DHT22;46158;52.850;6.970;2022-07-18T06:21:25;18.40;75.90
60313;DHT22;46158;52.850;6.970;2022-07-18T06:23:51;18.40;75.90
60313;DHT22;46158;52.850;6.970;2022-07-18T06:26:17;18.40;75.90
60313;DHT22;46158;52.850;6.970;2022-07-18T06:28:42;18.40;75.90
60313;DHT22;46158;52.850;6.970;2022-07-18T06:31:08;18.40;75.90
60313;DHT22;46158;52.850;6.970;2022-07-18T06:33:33;18.40;75.90
60313;DHT22;46158;52.850;6.970;2022-07-18T06:35:59;18.40;76.00
60313;DHT22;46158;52.850;6.970;2022-07-18T06:38:24;18.40;76.10
60313;DHT22;46158;52.850;6.970;2022-07-18T06:40:50;18.40;76.10
60313;DHT22;46158;52.850;6.970;2022-07-18T06:43:15;18.40;76.10
60313;DHT22;46158;52.850;6.970;2022-07-18T06:45:45;18.50;76.10
60313;DHT22;46158;52.850;6.970;2022-07-18T06:48:10;18.40;76.10
60313;DHT22;46158;52.850;6.970;2022-07-18T06:50:36;18.50;76.10
60313;DHT22;46158;52.850;6.970;2022-07-18T06:53:02;18.50;76.20
60313;DHT22;46158;52.850;6.970;2022-07-18T06:55:27;18.50;76.30
60313;DHT22;46158;52.850;6.970;2022-07-18T06:57:53;18.50;76.20
60313;DHT22;46158;52.850;6.970;2022-07-18T07:00:18;18.50;76.20
60313;DHT22;46158;52.850;6.970;2022-07-18T07:02:44;18.50;76.30
60313;DHT22;46158;52.850;6.970;2022-07-18T07:05:10;18.50;76.30
60313;DHT22;46158;52.850;6.970;2022-07-18T07:07:36;18.50;76.20
60313;DHT22;46158;52.850;6.970;2022-07-18T07:10:02;18.50;76.10
60313;DHT22;46158;52.850;6.970;2022-07-18T07:12:28;18.50;76.10
60313;DHT22;46158;52.850;6.970;2022-07-18T07:14:53;18.50;76.10
60313;DHT22;46158;52.850;6.970;2022-07-18T07:17:19;18.50;76.10
60313;DHT22;46158;52.850;6.970;2022-07-18T07:19:44;18.50;76.10
60313;DHT22;46158;52.850;6.970;2022-07-18T07:22:10;18.60;76.20
60313;DHT22;46158;52.850;6.970;2022-07-18T07:24:35;18.50;76.90
60313;DHT22;46158;52.850;6.970;2022-07-18T07:27:03;18.60;76.40
60313;DHT22;46158;52.850;6.970;2022-07-18T07:29:29;18.60;76.30
60313;DHT22;46158;52.850;6.970;2022-07-18T07:31:55;18.60;76.40
60313;DHT22;46158;52.850;6.970;2022-07-18T07:34:20;18.60;76.40
60313;DHT22;46158;52.850;6.970;2022-07-18T07:36:46;18.60;76.40
60313;DHT22;46158;52.850;6.970;2022-07-18T07:39:11;18.60;76.40
60313;DHT22;46158;52.850;6.970;2022-07-18T07:41:37;18.60;76.40
60313;DHT22;46158;52.850;6.970;2022-07-18T07:44:02;18.60;76.60
60313;DHT22;46158;52.850;6.970;2022-07-18T07:46:28;18.60;76.50
60313;DHT22;46158;52.850;6.970;2022-07-18T07:48:54;18.60;76.50
60313;DHT22;46158;52.850;6.970;2022-07-18T07:51:19;18.60;76.60
60313;DHT22;46158;52.850;6.970;2022-07-18T07:53:45;18.60;76.60
60313;DHT22;46158;52.850;6.970;2022-07-18T07:56:10;18.60;76.60
60313;DHT22;46158;52.850;6.970;2022-07-18T07:58:36;18.60;76.70
60313;DHT22;46158;52.850;6.970;2022-07-18T08:01:01;18.60;76.70
60313;DHT22;46158;52.850;6.970;2022-07-18T08:03:27;18.60;76.80
60313;DHT22;46158;52.850;6.970;2022-07-18T08:05:52;18.60;76.90
60313;DHT22;46158;52.850;6.970;2022-07-18T08:08:18;18.70;76.90
60313;DHT22;46158;52.850;6.970;2022-07-18T08:10:44;18.70;77.70
60313;DHT22;46158;52.850;6.970;2022-07-18T08:13:10;18.70;76.80
60313;DHT22;46158;52.850;6.970;2022-07-18T08:15:35;18.70;76.80
60313;DHT22;46158;52.850;6.970;2022-07-18T08:18:01;18.70;76.70
60313;DHT22;46158;52.850;6.970;2022-07-18T08:20:26;18.70;76.70
60313;DHT22;46158;52.850;6.970;2022-07-18T08:22:53;18.70;76.60
60313;DHT22;46158;52.850;6.970;2022-07-18T08:25:19;18.70;76.70
60313;DHT22;46158;52.850;6.970;2022-07-18T08:27:45;18.70;76.70
60313;DHT22;46158;52.850;6.970;2022-07-18T08:30:10;18.70;76.80
60313;DHT22;46158;52.850;6.970;2022-07-18T08:32:36;18.70;76.80
60313;DHT22;46158;52.850;6.970;2022-07-18T08:35:02;18.70;76.80
60313;DHT22;46158;52.850;6.970;2022-07-18T08:37:27;18.70;76.80
60313;DHT22;46158;52.850;6.970;2022-07-18T08:39:53;18.70;76.80
60313;DHT22;46158;52.850;6.970;2022-07-18T08:42:18;18.70;76.90
60313;DHT22;46158;52.850;6.970;2022-07-18T08:44:47;18.70;76.90
60313;DHT22;46158;52.850;6.970;2022-07-18T08:47:13;18.70;76.90
60313;DHT22;46158;52.850;6.970;2022-07-18T08:49:40;18.80;77.60
60313;DHT22;46158;52.850;6.970;2022-07-18T08:52:06;18.70;76.90
60313;DHT22;46158;52.850;6.970;2022-07-18T08:54:31;18.70;76.90
60313;DHT22;46158;52.850;6.970;2022-07-18T08:56:57;18.70;76.90
60313;DHT22;46158;52.850;6.970;2022-07-18T08:59:23;18.70;76.90
60313;DHT22;46158;52.850;6.970;2022-07-18T09:01:48;18.80;77.00
60313;DHT22;46158;52.850;6.970;2022-07-18T09:04:30;18.80;77.00
60313;DHT22;46158;52.850;6.970;2022-07-18T09:06:56;18.80;77.00
60313;DHT22;46158;52.850;6.970;2022-07-18T09:09:23;18.80;77.10
60313;DHT22;46158;52.850;6.970;2022-07-18T09:17:13;18.80;76.90
60313;DHT22;46158;52.850;6.970;2022-07-18T09:19:40;18.80;76.80
60313;DHT22;46158;52.850;6.970;2022-07-18T09:22:13;18.80;76.80
60313;DHT22;46158;52.850;6.970;2022-07-18T09:30:04;18.80;76.80
60313;DHT22;46158;52.850;6.970;2022-07-18T09:32:31;18.90;76.90
60313;DHT22;46158;52.850;6.970;2022-07-18T09:34:56;18.90;76.90
60313;DHT22;46158;52.850;6.970;2022-07-18T09:37:29;18.80;76.90
60313;DHT22;46158;52.850;6.970;2022-07-18T09:40:03;18.90;76.90
60313;DHT22;46158;52.850;6.970;2022-07-18T09:42:38;18.90;76.90
60313;DHT22;46158;52.850;6.970;2022-07-18T09:45:05;18.90;77.00
60313;DHT22;46158;52.850;6.970;2022-07-18T09:47:30;18.90;77.00
60313;DHT22;46158;52.850;6.970;2022-07-18T09:49:56;18.90;76.90
60313;DHT22;46158;52.850;6.970;2022-07-18T09:52:22;18.90;76.90
60313;DHT22;46158;52.850;6.970;2022-07-18T09:54:47;18.90;76.90
60313;DHT22;46158;52.850;6.970;2022-07-18T09:57:26;18.90;76.90
60313;DHT22;46158;52.850;6.970;2022-07-18T09:59:52;18.90;76.90
60313;DHT22;46158;52.850;6.970;2022-07-18T10:02:18;18.90;76.90
60313;DHT22;46158;52.850;6.970;2022-07-18T10:04:43;18.90;76.90
60313;DHT22;46158;52.850;6.970;2022-07-18T10:07:09;18.90;76.90
60313;DHT22;46158;52.850;6.970;2022-07-18T10:09:36;18.90;76.90
60313;DHT22;46158;52.850;6.970;2022-07-18T10:12:04;18.90;77.10
60313;DHT22;46158;52.850;6.970;2022-07-18T10:14:30;18.90;76.90
60313;DHT22;46158;52.850;6.970;2022-07-18T10:16:56;18.90;76.90
60313;DHT22;46158;52.850;6.970;2022-07-18T10:19:22;18.90;76.90
60313;DHT22;46158;52.850;6.970;2022-07-18T10:21:48;18.90;76.90
60313;DHT22;46158;52.850;6.970;2022-07-18T10:24:16;19.00;76.90
60313;DHT22;46158;52.850;6.970;2022-07-18T10:26:42;19.00;76.90
60313;DHT22;46158;52.850;6.970;2022-07-18T10:29:08;19.00;76.90
60313;DHT22;46158;52.850;6.970;2022-07-18T10:31:34;19.00;76.90
60313;DHT22;46158;52.850;6.970;2022-07-18T10:34:09;19.00;76.90
60313;DHT22;46158;52.850;6.970;2022-07-18T10:37:23;19.00;77.00
60313;DHT22;46158;52.850;6.970;2022-07-18T10:39:35;19.00;76.90
60313;DHT22;46158;52.850;6.970;2022-07-18T10:47:03;19.00;76.90
60313;DHT22;46158;52.850;6.970;2022-07-18T10:57:27;19.10;76.90
60313;DHT22;46158;52.850;6.970;2022-07-18T10:59:59;19.10;76.80
60313;DHT22;46158;52.850;6.970;2022-07-18T11:02:36;19.10;76.80
60313;DHT22;46158;52.850;6.970;2022-07-18T11:05:02;19.10;76.70
60313;DHT22;46158;52.850;6.970;2022-07-18T11:07:28;19.10;76.80
60313;DHT22;46158;52.850;6.970;2022-07-18T11:09:54;19.10;76.70
60313;DHT22;46158;52.850;6.970;2022-07-18T11:12:29;19.10;76.70
60313;DHT22;46158;52.850;6.970;2022-07-18T11:15:02;19.10;76.70
60313;DHT22;46158;52.850;6.970;2022-07-18T11:23:17;19.10;76.70
60313;DHT22;46158;52.850;6.970;2022-07-18T11:25:43;19.10;76.70
60313;DHT22;46158;52.850;6.970;2022-07-18T11:28:10;19.20;76.80
60313;DHT22;46158;52.850;6.970;2022-07-18T11:30:36;19.20;76.70
60313;DHT22;46158;52.850;6.970;2022-07-18T11:33:02;19.20;76.80
60313;DHT22;46158;52.850;6.970;2022-07-18T11:35:28;19.20;76.80
60313;DHT22;46158;52.850;6.970;2022-07-18T11:37:54;19.20;76.80
60313;DHT22;46158;52.850;6.970;2022-07-18T11:40:21;19.20;76.70
60313;DHT22;46158;52.850;6.970;2022-07-18T11:42:46;19.20;76.70
60313;DHT22;46158;52.850;6.970;2022-07-18T11:45:12;19.20;76.70
60313;DHT22;46158;52.850;6.970;2022-07-18T11:47:39;19.30;76.80
60313;DHT22;46158;52.850;6.970;2022-07-18T11:50:05;19.20;76.70
60313;DHT22;46158;52.850;6.970;2022-07-18T11:52:31;19.20;76.70
60313;DHT22;46158;52.850;6.970;2022-07-18T11:55:01;19.20;76.60
60313;DHT22;46158;52.850;6.970;2022-07-18T11:57:30;19.30;76.70
60313;DHT22;46158;52.850;6.970;2022-07-18T11:59:56;19.30;76.70
60313;DHT22;46158;52.850;6.970;2022-07-18T12:02:21;19.30;76.70
60313;DHT22;46158;52.850;6.970;2022-07-18T12:04:47;19.30;76.60
60313;DHT22;46158;52.850;6.970;2022-07-18T12:07:17;19.30;76.60
60313;DHT22;46158;52.850;6.970;2022-07-18T12:09:43;19.30;76.70
60313;DHT22;46158;52.850;6.970;2022-07-18T12:12:10;19.30;76.60
60313;DHT22;46158;52.850;6.970;2022-07-18T12:14:36;19.30;76.70
60313;DHT22;46158;52.850;6.970;2022-07-18T12:17:04;19.30;76.60
60313;DHT22;46158;52.850;6.970;2022-07-18T12:19:34;19.30;76.70
60313;DHT22;46158;52.850;6.970;2022-07-18T12:24:30;19.30;76.50
60313;DHT22;46158;52.850;6.970;2022-07-18T12:35:02;19.40;76.50
60313;DHT22;46158;52.850;6.970;2022-07-18T12:37:28;19.50;76.50
60313;DHT22;46158;52.850;6.970;2022-07-18T12:40:02;19.40;76.40
60313;DHT22;46158;52.850;6.970;2022-07-18T12:42:36;19.40;76.30
60313;DHT22;46158;52.850;6.970;2022-07-18T12:45:02;19.40;76.30
60313;DHT22;46158;52.850;6.970;2022-07-18T12:47:28;19.50;76.40
60313;DHT22;46158;52.850;6.970;2022-07-18T12:49:54;19.50;76.30
60313;DHT22;46158;52.850;6.970;2022-07-18T12:52:20;19.50;76.30
60313;DHT22;46158;52.850;6.970;2022-07-18T12:54:46;19.50;76.30
60313;DHT22;46158;52.850;6.970;2022-07-18T12:57:12;19.50;76.30
60313;DHT22;46158;52.850;6.970;2022-07-18T12:59:37;19.50;76.30
60313;DHT22;46158;52.850;6.970;2022-07-18T13:02:04;19.50;76.30
60313;DHT22;46158;52.850;6.970;2022-07-18T13:04:29;19.50;76.30
60313;DHT22;46158;52.850;6.970;2022-07-18T13:06:55;19.50;76.20
60313;DHT22;46158;52.850;6.970;2022-07-18T13:09:22;19.50;76.20
60313;DHT22;46158;52.850;6.970;2022-07-18T13:11:47;19.60;76.30
60313;DHT22;46158;52.850;6.970;2022-07-18T13:14:16;19.50;76.10
60313;DHT22;46158;52.850;6.970;2022-07-18T13:16:42;19.60;76.20
60313;DHT22;46158;52.850;6.970;2022-07-18T13:19:15;19.60;76.10
60313;DHT22;46158;52.850;6.970;2022-07-18T13:21:41;19.60;76.10
60313;DHT22;46158;52.850;6.970;2022-07-18T13:24:07;19.60;76.00
60313;DHT22;46158;52.850;6.970;2022-07-18T13:26:32;19.60;76.10
60313;DHT22;46158;52.850;6.970;2022-07-18T13:28:58;19.60;76.00
60313;DHT22;46158;52.850;6.970;2022-07-18T13:31:24;19.60;76.00
60313;DHT22;46158;52.850;6.970;2022-07-18T13:33:49;19.60;76.00
60313;DHT22;46158;52.850;6.970;2022-07-18T13:36:17;19.60;75.90
60313;DHT22;46158;52.850;6.970;2022-07-18T13:38:43;19.60;75.80
60313;DHT22;46158;52.850;6.970;2022-07-18T13:41:09;19.70;75.90
60313;DHT22;46158;52.850;6.970;2022-07-18T13:43:34;19.70;75.90
60313;DHT22;46158;52.850;6.970;2022-07-18T13:46:02;19.70;75.90
60313;DHT22;46158;52.850;6.970;2022-07-18T13:48:27;19.70;75.80
60313;DHT22;46158;52.850;6.970;2022-07-18T13:50:53;19.70;75.80
60313;DHT22;46158;52.850;6.970;2022-07-18T13:53:18;19.70;75.80
60313;DHT22;46158;52.850;6.970;2022-07-18T13:55:44;19.80;75.80
60313;DHT22;46158;52.850;6.970;2022-07-18T13:58:09;19.80;75.80
60313;DHT22;46158;52.850;6.970;2022-07-18T14:00:35;19.80;75.80
60313;DHT22;46158;52.850;6.970;2022-07-18T14:03:00;19.80;75.80
60313;DHT22;46158;52.850;6.970;2022-07-18T14:05:26;19.80;75.80
60313;DHT22;46158;52.850;6.970;2022-07-18T14:07:51;19.80;75.80
60313;DHT22;46158;52.850;6.970;2022-07-18T14:10:17;19.80;75.80
60313;DHT22;46158;52.850;6.970;2022-07-18T14:12:43;19.80;75.70
60313;DHT22;46158;52.850;6.970;2022-07-18T14:15:09;19.80;75.80
60313;DHT22;46158;52.850;6.970;2022-07-18T14:17:35;19.80;75.70
60313;DHT22;46158;52.850;6.970;2022-07-18T14:20:00;19.90;75.70
60313;DHT22;46158;52.850;6.970;2022-07-18T14:22:26;19.90;75.70
60313;DHT22;46158;52.850;6.970;2022-07-18T14:24:52;19.90;75.70
60313;DHT22;46158;52.850;6.970;2022-07-18T14:27:17;19.90;75.60
60313;DHT22;46158;52.850;6.970;2022-07-18T14:29:43;19.90;75.60
60313;DHT22;46158;52.850;6.970;2022-07-18T14:32:08;19.90;75.40
60313;DHT22;46158;52.850;6.970;2022-07-18T14:34:34;19.90;75.50
60313;DHT22;46158;52.850;6.970;2022-07-18T14:37:00;19.90;75.60
60313;DHT22;46158;52.850;6.970;2022-07-18T14:39:25;20.00;75.70
60313;DHT22;46158;52.850;6.970;2022-07-18T14:41:51;20.00;75.60
60313;DHT22;46158;52.850;6.970;2022-07-18T14:44:17;20.00;75.50
60313;DHT22;46158;52.850;6.970;2022-07-18T14:46:43;20.00;75.50
60313;DHT22;46158;52.850;6.970;2022-07-18T14:49:08;20.10;75.50
60313;DHT22;46158;52.850;6.970;2022-07-18T14:51:35;20.10;75.50
60313;DHT22;46158;52.850;6.970;2022-07-18T14:54:01;20.10;75.50
60313;DHT22;46158;52.850;6.970;2022-07-18T14:56:26;20.10;75.50
60313;DHT22;46158;52.850;6.970;2022-07-18T14:58:53;20.10;75.50
60313;DHT22;46158;52.850;6.970;2022-07-18T15:01:18;20.10;75.50
60313;DHT22;46158;52.850;6.970;2022-07-18T15:03:46;20.10;75.60
60313;DHT22;46158;52.850;6.970;2022-07-18T15:06:11;20.10;75.60
60313;DHT22;46158;52.850;6.970;2022-07-18T15:08:37;20.10;75.60
60313;DHT22;46158;52.850;6.970;2022-07-18T15:11:03;20.10;75.60
60313;DHT22;46158;52.850;6.970;2022-07-18T15:13:28;20.10;75.60
60313;DHT22;46158;52.850;6.970;2022-07-18T15:15:54;20.10;75.70
60313;DHT22;46158;52.850;6.970;2022-07-18T15:18:19;20.10;75.70
60313;DHT22;46158;52.850;6.970;2022-07-18T15:20:45;20.10;75.70
60313;DHT22;46158;52.850;6.970;2022-07-18T15:23:11;20.20;75.80
60313;DHT22;46158;52.850;6.970;2022-07-18T15:25:36;20.20;75.80
60313;DHT22;46158;52.850;6.970;2022-07-18T15:28:02;20.20;75.80
60313;DHT22;46158;52.850;6.970;2022-07-18T15:30:27;20.20;75.90
60313;DHT22;46158;52.850;6.970;2022-07-18T15:32:53;20.20;76.00
60313;DHT22;46158;52.850;6.970;2022-07-18T15:35:18;20.20;75.90
60313;DHT22;46158;52.850;6.970;2022-07-18T15:37:44;20.20;75.90
60313;DHT22;46158;52.850;6.970;2022-07-18T15:40:10;20.20;75.90
60313;DHT22;46158;52.850;6.970;2022-07-18T15:42:35;20.20;75.90
60313;DHT22;46158;52.850;6.970;2022-07-18T15:45:01;20.30;76.00
60313;DHT22;46158;52.850;6.970;2022-07-18T15:47:26;20.30;75.90
60313;DHT22;46158;52.850;6.970;2022-07-18T15:49:52;20.30;75.90
60313;DHT22;46158;52.850;6.970;2022-07-18T15:52:18;20.30;75.90
60313;DHT22;46158;52.850;6.970;2022-07-18T15:54:43;20.30;75.90
60313;DHT22;46158;52.850;6.970;2022-07-18T15:57:09;20.30;75.90
60313;DHT22;46158;52.850;6.970;2022-07-18T15:59:34;20.30;75.90
60313;DHT22;46158;52.850;6.970;2022-07-18T16:02:00;20.30;75.90
60313;DHT22;46158;52.850;6.970;2022-07-18T16:04:26;20.40;76.00